createdAt,value
2022-12-25T00:00:02.421Z,26.73
2022-12-25T00:01:02.445Z,27.09
2022-12-25T00:02:02.345Z,29.42
2022-12-25T00:03:02.493Z,28.59
2022-12-25T00:04:02.370Z,26.02
2022-12-25T00:05:02.260Z,26.71
2022-12-25T00:06:02.233Z,27.61
2022-12-25T00:07:02.210Z,29.46
2022-12-25T00:08:02.204Z,30.57
2022-12-25T00:09:02.160Z,29.36
2022-12-25T00:10:02.187Z,28.62
2022-12-25T00:11:02.095Z,29.67
2022-12-25T00:12:02.072Z,28.78
2022-12-25T00:13:02.055Z,31.07
2022-12-25T00:14:02.048Z,27.04
2022-12-25T00:15:02.088Z,29.29
2022-12-25T00:16:02.032Z,26.71
2022-12-25T00:17:01.948Z,26.68
2022-12-25T00:18:01.943Z,25.37
2022-12-25T00:19:01.892Z,28.01
2022-12-25T00:20:01.911Z,26.21
2022-12-25T00:21:01.849Z,27.90
2022-12-25T00:22:01.831Z,27.55
2022-12-25T00:23:01.810Z,26.98
2022-12-25T00:24:01.766Z,27.89
2022-12-25T00:25:01.743Z,29.22
2022-12-25T00:26:01.710Z,28.01
2022-12-25T00:27:01.719Z,30.57
2022-12-25T00:28:01.679Z,29.19
2022-12-25T00:29:01.650Z,27.53
2022-12-25T00:30:01.681Z,26.23
2022-12-25T00:31:01.647Z,28.14
2022-12-25T00:32:01.608Z,28.07
2022-12-25T00:33:01.570Z,29.61
2022-12-25T00:34:01.555Z,25.53
2022-12-25T00:35:01.532Z,27.20
2022-12-25T00:36:01.524Z,28.54
2022-12-25T00:37:01.493Z,29.10
2022-12-25T00:38:01.480Z,27.39
2022-12-25T00:39:01.455Z,27.84
2022-12-25T00:40:01.450Z,28.84
2022-12-25T00:41:01.445Z,31.08
2022-12-25T00:42:01.413Z,28.52
2022-12-25T00:43:01.361Z,29.62
2022-12-25T00:44:01.337Z,28.35
2022-12-25T00:45:01.329Z,28.10
2022-12-25T00:46:01.420Z,28.53
2022-12-25T00:47:01.338Z,29.59
2022-12-25T00:48:01.231Z,30.15
2022-12-25T00:49:01.191Z,28.46
2022-12-25T00:50:01.184Z,31.84
2022-12-25T00:51:01.147Z,29.78
2022-12-25T00:52:01.117Z,27.27
2022-12-25T00:53:01.102Z,30.82
2022-12-25T00:54:01.080Z,28.77
2022-12-25T00:55:01.036Z,29.25
2022-12-25T00:56:01.013Z,29.45
2022-12-25T00:57:00.996Z,28.65
2022-12-25T00:58:00.974Z,28.78
2022-12-25T00:59:00.936Z,30.91
2022-12-25T01:00:00.909Z,27.69
2022-12-25T01:01:00.963Z,27.14
2022-12-25T01:02:00.912Z,32.58
2022-12-25T01:03:00.988Z,30.98
2022-12-25T01:04:00.818Z,26.21
2022-12-25T01:05:00.805Z,29.90
2022-12-25T01:06:00.778Z,30.20
2022-12-25T01:07:00.758Z,28.49
2022-12-25T01:08:00.773Z,28.73
2022-12-25T01:09:00.682Z,27.81
2022-12-25T01:10:00.650Z,30.30
2022-12-25T01:11:00.654Z,27.60
2022-12-25T01:12:00.593Z,29.34
2022-12-25T01:13:00.581Z,27.64
2022-12-25T01:14:00.532Z,27.25
2022-12-25T01:15:00.519Z,30.20
2022-12-25T01:16:00.523Z,28.03
2022-12-25T01:17:00.453Z,26.99
2022-12-25T01:18:04.075Z,28.10
2022-12-25T01:20:00.378Z,28.41
2022-12-25T01:21:00.373Z,28.64
2022-12-25T01:22:00.327Z,28.70
2022-12-25T01:23:00.333Z,28.90
2022-12-25T01:24:00.258Z,28.01
2022-12-25T01:25:00.212Z,28.23
2022-12-25T01:26:00.210Z,26.93
2022-12-25T01:27:00.180Z,27.18
2022-12-25T01:28:00.149Z,27.57
2022-12-25T01:29:00.123Z,27.66
2022-12-25T01:47:00.545Z,27.66
2022-12-25T02:11:00.157Z,27.31
2022-12-25T02:12:00.397Z,30.67
2022-12-25T02:13:00.191Z,26.87
2022-12-25T02:14:00.214Z,28.58
2022-12-25T02:15:05.473Z,29.88
2022-12-25T02:16:01.343Z,30.06
2022-12-25T02:17:00.276Z,29.93
2022-12-25T02:18:00.218Z,28.27
2022-12-25T02:19:00.146Z,26.55
2022-12-25T02:20:00.162Z,28.30
2022-12-25T02:21:00.137Z,28.01
2022-12-25T02:25:00.573Z,29.24
2022-12-25T07:42:52.687Z,27.80
2022-12-25T07:43:52.652Z,31.07
2022-12-25T07:44:52.624Z,29.05
2022-12-25T07:46:52.572Z,26.18
2022-12-25T07:47:55.175Z,28.02
2022-12-25T07:48:52.529Z,29.55
2022-12-25T07:49:52.566Z,28.26
2022-12-25T07:50:52.489Z,26.46
2022-12-25T07:51:52.466Z,32.12
2022-12-25T07:52:52.436Z,26.99
2022-12-25T07:53:52.411Z,27.39
2022-12-25T07:54:52.395Z,27.77
2022-12-25T07:55:52.371Z,27.83
2022-12-25T07:56:52.346Z,27.85
2022-12-25T07:57:52.343Z,28.87
2022-12-25T07:58:52.312Z,29.17
2022-12-25T07:59:52.275Z,26.44
2022-12-25T08:00:52.358Z,30.29
2022-12-25T08:01:52.449Z,28.94
2022-12-25T08:02:52.387Z,27.51
2022-12-25T08:03:52.398Z,27.69
2022-12-25T08:04:52.163Z,30.45
2022-12-25T08:05:52.149Z,26.99
2022-12-25T08:06:52.154Z,26.41
2022-12-25T08:07:57.096Z,26.64
2022-12-25T08:08:53.077Z,26.83
2022-12-25T08:09:52.054Z,26.91
2022-12-25T08:10:52.021Z,26.53
2022-12-25T08:11:52.030Z,26.95
2022-12-25T08:12:52.008Z,27.95
2022-12-25T08:13:51.982Z,27.49
2022-12-25T08:14:51.946Z,27.29
2022-12-25T08:15:51.930Z,26.61
2022-12-25T08:16:52.006Z,26.55
2022-12-25T08:17:51.873Z,27.28
2022-12-25T08:18:51.878Z,27.23
2022-12-25T08:19:51.841Z,25.63
2022-12-25T08:20:51.810Z,27.28
2022-12-25T08:21:51.795Z,26.75
2022-12-25T08:22:51.766Z,26.13
2022-12-25T08:23:51.734Z,29.54
2022-12-25T08:24:51.731Z,28.88
2022-12-25T08:25:51.679Z,25.00
2022-12-25T08:26:51.714Z,27.47
2022-12-25T08:27:51.677Z,26.72
2022-12-25T08:28:51.609Z,28.46
2022-12-25T08:29:51.602Z,26.98
2022-12-25T08:30:51.627Z,30.41
2022-12-25T08:31:51.565Z,26.72
2022-12-25T08:32:51.511Z,28.16
2022-12-25T08:33:51.493Z,25.22
2022-12-25T08:34:51.479Z,26.20
2022-12-25T08:35:51.446Z,26.46
2022-12-25T08:36:51.462Z,26.20
2022-12-25T08:37:51.388Z,25.76
2022-12-25T08:38:53.469Z,29.15
2022-12-25T08:39:51.351Z,29.25
2022-12-25T08:40:51.328Z,28.22
2022-12-25T08:41:51.293Z,29.15
2022-12-25T08:42:51.255Z,26.91
2022-12-25T08:43:51.243Z,29.11
2022-12-25T08:44:51.225Z,29.59
2022-12-25T08:45:51.223Z,28.40
2022-12-25T08:46:51.155Z,30.09
2022-12-25T08:47:51.130Z,27.64
2022-12-25T08:48:51.092Z,27.10
2022-12-25T08:49:51.089Z,28.44
2022-12-25T08:50:51.144Z,29.72
2022-12-25T08:51:51.040Z,28.66
2022-12-25T08:52:51.024Z,29.59
2022-12-25T08:53:51.048Z,29.71
2022-12-25T08:54:50.971Z,30.28
2022-12-25T08:55:50.980Z,28.32
2022-12-25T08:56:50.942Z,30.08
2022-12-25T08:57:50.943Z,29.25
2022-12-25T08:58:50.902Z,29.37
2022-12-25T08:59:50.882Z,30.44
2022-12-25T09:00:50.873Z,30.18
2022-12-25T09:01:50.965Z,30.91
2022-12-25T09:02:51.015Z,31.18
2022-12-25T09:03:50.838Z,34.85
2022-12-25T09:04:50.780Z,35.76
2022-12-25T09:05:50.789Z,33.22
2022-12-25T09:06:50.761Z,32.13
2022-12-25T09:07:50.769Z,32.93
2022-12-25T09:08:50.726Z,35.37
2022-12-25T09:09:50.693Z,35.23
2022-12-25T09:10:50.710Z,33.70
2022-12-25T09:11:50.660Z,35.61
2022-12-25T09:12:50.660Z,32.60
2022-12-25T09:13:50.617Z,29.94
2022-12-25T09:14:50.592Z,30.70
2022-12-25T09:15:50.698Z,36.01
2022-12-25T09:16:51.233Z,35.65
2022-12-25T09:17:51.231Z,35.98
2022-12-25T09:18:50.670Z,36.10
2022-12-25T09:19:51.220Z,35.40
2022-12-25T09:20:50.626Z,34.08
2022-12-25T09:21:50.604Z,33.42
2022-12-25T09:22:50.578Z,35.04
2022-12-25T09:23:50.550Z,34.10
2022-12-25T09:24:50.545Z,35.80
2022-12-25T09:25:50.515Z,33.48
2022-12-25T09:26:50.478Z,36.11
2022-12-25T09:27:50.480Z,34.49
2022-12-25T09:28:52.332Z,35.08
2022-12-25T09:29:50.483Z,33.75
2022-12-25T09:30:50.583Z,34.29
2022-12-25T09:31:50.430Z,32.22
2022-12-25T09:32:50.410Z,33.10
2022-12-25T09:33:50.437Z,31.48
2022-12-25T09:34:50.458Z,30.56
2022-12-25T09:35:50.499Z,30.73
2022-12-25T09:36:50.501Z,28.95
2022-12-25T09:37:50.547Z,29.88
2022-12-25T09:38:50.661Z,30.58
2022-12-25T09:39:50.606Z,32.48
2022-12-25T09:40:50.629Z,30.11
2022-12-25T09:41:50.667Z,30.76
2022-12-25T09:42:50.716Z,29.04
2022-12-25T09:43:50.747Z,29.53
2022-12-25T09:44:50.760Z,28.38
2022-12-25T09:45:50.833Z,28.60
2022-12-25T09:46:50.910Z,27.56
2022-12-25T09:47:50.909Z,26.11
2022-12-25T09:48:50.914Z,29.16
2022-12-25T09:49:50.957Z,30.77
2022-12-25T09:50:50.963Z,29.81
2022-12-25T09:51:51.019Z,28.23
2022-12-25T09:52:51.713Z,30.62
2022-12-25T09:53:51.016Z,31.43
2022-12-25T09:54:50.976Z,26.42
2022-12-25T09:55:50.956Z,30.22
2022-12-25T09:56:50.929Z,29.06
2022-12-25T09:57:50.931Z,30.71
2022-12-25T09:58:50.908Z,28.07
2022-12-25T09:59:50.846Z,27.95
2022-12-25T10:00:50.856Z,30.59
2022-12-25T10:01:50.987Z,29.99
2022-12-25T10:02:51.144Z,28.95
2022-12-25T10:03:51.049Z,26.19
2022-12-25T10:04:51.014Z,28.78
2022-12-25T10:05:51.033Z,28.20
2022-12-25T10:06:51.067Z,27.93
2022-12-25T10:07:51.110Z,28.17
2022-12-25T10:08:51.143Z,30.02
2022-12-25T10:09:51.164Z,31.33
2022-12-25T10:10:51.183Z,29.59
2022-12-25T10:11:51.210Z,30.15
2022-12-25T10:12:51.243Z,28.70
2022-12-25T10:13:51.292Z,30.52
2022-12-25T10:14:51.291Z,30.16
2022-12-25T10:15:51.402Z,30.20
2022-12-25T10:16:51.366Z,28.89
2022-12-25T11:01:55.452Z,29.73
2022-12-25T11:02:52.907Z,32.56
2022-12-25T11:03:52.636Z,32.42
2022-12-25T11:04:52.553Z,31.46
2022-12-25T11:05:52.522Z,31.68
2022-12-25T11:06:52.495Z,31.18
2022-12-25T11:07:52.472Z,31.35
2022-12-25T11:08:52.435Z,31.45
2022-12-25T11:09:52.399Z,32.78
2022-12-25T11:10:52.393Z,32.06
2022-12-25T11:11:52.363Z,30.94
2022-12-25T11:12:52.330Z,31.92
2022-12-25T11:13:52.270Z,31.48
2022-12-25T11:14:52.263Z,31.41
2022-12-25T11:15:52.275Z,30.59
2022-12-25T11:16:52.217Z,31.55
2022-12-25T11:17:52.149Z,32.73
2022-12-25T11:18:52.137Z,33.04
2022-12-25T11:19:52.162Z,30.66
2022-12-25T11:20:52.138Z,33.03
2022-12-25T11:21:52.023Z,31.49
2022-12-25T11:22:52.019Z,32.13
2022-12-25T11:23:51.961Z,31.28
2022-12-25T11:24:51.931Z,31.70
2022-12-25T11:25:51.977Z,31.96
2022-12-25T11:26:51.885Z,30.44
2022-12-25T11:27:53.544Z,31.48
2022-12-25T11:28:51.804Z,33.34
2022-12-25T11:29:51.785Z,32.38
2022-12-25T11:30:51.777Z,32.77
2022-12-25T11:31:51.783Z,32.40
2022-12-25T11:32:51.668Z,31.87
2022-12-25T11:33:51.652Z,32.94
2022-12-25T11:34:51.655Z,33.01
2022-12-25T11:35:51.596Z,34.59
2022-12-25T11:36:51.553Z,33.65
2022-12-25T11:37:51.507Z,31.56
2022-12-25T11:38:51.470Z,34.70
2022-12-25T11:39:51.483Z,30.86
2022-12-25T11:40:51.431Z,31.14
2022-12-25T11:41:51.428Z,33.15
2022-12-25T11:42:51.345Z,32.37
2022-12-25T11:43:51.316Z,33.71
2022-12-25T11:44:51.273Z,32.54
2022-12-25T11:45:51.242Z,32.75
2022-12-25T11:46:51.262Z,33.82
2022-12-25T11:47:51.181Z,33.47
2022-12-25T11:48:51.165Z,33.31
2022-12-25T11:49:54.869Z,34.24
2022-12-25T11:50:52.092Z,34.51
2022-12-25T11:51:51.088Z,34.53
2022-12-25T11:52:51.019Z,34.36
2022-12-25T11:53:50.999Z,34.68
2022-12-25T11:54:50.957Z,34.38
2022-12-25T11:55:50.945Z,33.96
2022-12-25T11:56:50.917Z,34.10
2022-12-25T11:57:50.879Z,34.74
2022-12-25T11:58:50.848Z,33.95
2022-12-25T11:59:50.814Z,32.66
2022-12-25T12:00:50.803Z,32.32
2022-12-25T12:01:50.860Z,31.48
2022-12-25T12:02:50.851Z,32.12
2022-12-25T12:03:50.740Z,32.07
2022-12-25T12:04:50.656Z,31.74
2022-12-25T12:05:50.629Z,31.89
2022-12-25T12:06:50.598Z,30.64
2022-12-25T12:07:50.584Z,31.38
2022-12-25T12:08:50.556Z,32.79
2022-12-25T12:09:50.510Z,31.25
2022-12-25T12:10:50.498Z,31.52
2022-12-25T12:11:50.465Z,32.58
2022-12-25T12:12:50.431Z,32.13
2022-12-25T12:13:50.427Z,30.68
2022-12-25T12:14:50.374Z,31.61
2022-12-25T12:15:50.335Z,29.38
2022-12-25T12:16:50.405Z,30.44
2022-12-25T12:17:50.258Z,30.29
2022-12-25T12:18:50.892Z,29.58
2022-12-25T12:19:50.206Z,29.42
2022-12-25T12:20:50.170Z,30.12
2022-12-25T12:21:50.135Z,29.21
2022-12-25T12:22:50.106Z,32.28
2022-12-25T14:32:46.194Z,25.71
2022-12-25T14:33:46.168Z,25.00
2022-12-25T14:34:46.157Z,26.38
2022-12-25T14:35:46.096Z,25.19
2022-12-25T14:36:46.067Z,25.88
2022-12-25T14:37:46.046Z,26.35
2022-12-25T14:38:46.011Z,27.21
2022-12-25T14:39:45.980Z,25.78
2022-12-25T14:40:45.979Z,25.59
2022-12-25T14:41:45.952Z,25.78
2022-12-25T14:42:45.994Z,26.93
2022-12-25T14:43:45.873Z,25.79
2022-12-25T14:44:45.849Z,25.69
2022-12-25T14:45:45.823Z,25.70
2022-12-25T14:46:45.815Z,26.61
2022-12-25T14:47:45.790Z,27.15
2022-12-25T14:48:45.751Z,25.00
2022-12-25T14:49:46.314Z,26.01
2022-12-25T14:50:45.706Z,25.30
2022-12-25T14:51:45.648Z,25.79
2022-12-25T14:52:45.793Z,25.95
2022-12-25T14:53:45.592Z,26.26
2022-12-25T14:54:45.555Z,26.22
2022-12-25T14:55:45.524Z,26.98
2022-12-25T14:56:45.492Z,26.40
2022-12-25T14:57:45.477Z,27.47
2022-12-25T14:58:45.451Z,26.60
2022-12-25T14:59:45.422Z,26.53
2022-12-25T15:00:45.386Z,27.11
2022-12-25T15:01:45.528Z,25.07
2022-12-25T15:02:45.705Z,26.39
2022-12-25T15:03:45.325Z,28.92
2022-12-25T15:04:45.260Z,27.78
2022-12-25T15:05:45.228Z,25.00
2022-12-25T15:06:45.300Z,26.08
2022-12-25T15:07:45.167Z,26.04
2022-12-25T15:08:45.165Z,26.76
2022-12-25T15:09:45.137Z,26.11
2022-12-25T15:11:02.473Z,25.96
2022-12-25T15:11:46.106Z,26.13
2022-12-25T15:12:45.206Z,26.09
2022-12-25T15:13:45.024Z,26.64
2022-12-25T15:14:44.991Z,25.93
2022-12-25T15:15:45.002Z,25.59
2022-12-25T15:16:44.942Z,26.89
2022-12-25T15:17:44.913Z,29.07
2022-12-25T15:18:44.902Z,29.12
2022-12-25T15:19:44.835Z,26.17
2022-12-25T15:20:44.822Z,26.79
2022-12-25T15:21:44.813Z,26.49
2022-12-25T15:23:17.723Z,28.74
2022-12-25T15:23:45.733Z,28.89
2022-12-25T15:24:44.706Z,28.82
2022-12-25T15:25:44.709Z,28.71
2022-12-25T15:26:44.647Z,25.39
2022-12-25T15:27:44.618Z,26.28
2022-12-25T15:28:44.603Z,25.56
2022-12-25T15:30:09.384Z,26.52
2022-12-25T15:30:45.614Z,26.68
2022-12-25T15:31:44.489Z,26.57
2022-12-25T15:32:44.523Z,26.52
2022-12-25T15:33:44.584Z,25.43
2022-12-25T15:34:44.401Z,25.58
2022-12-25T15:35:44.510Z,28.20
2022-12-25T15:36:44.335Z,26.52
2022-12-25T15:37:44.299Z,29.45
2022-12-25T15:38:44.280Z,28.00
2022-12-25T15:39:44.252Z,28.25
2022-12-25T15:40:44.243Z,28.28
2022-12-25T15:41:44.196Z,28.37
2022-12-25T15:42:44.954Z,27.88
2022-12-25T15:43:44.176Z,25.33
2022-12-25T15:44:44.137Z,27.92
2022-12-25T15:45:44.088Z,28.60
2022-12-25T15:46:44.167Z,25.73
2022-12-25T15:47:44.015Z,26.39
2022-12-25T15:48:44.002Z,25.66
2022-12-25T15:49:43.985Z,25.90
2022-12-25T15:50:43.932Z,28.47
2022-12-25T15:51:43.902Z,27.09
2022-12-25T15:52:44.050Z,28.28
2022-12-25T15:53:43.891Z,27.10
2022-12-25T15:54:43.820Z,27.40
2022-12-25T15:55:43.796Z,25.67
2022-12-25T15:56:43.745Z,25.72
2022-12-25T15:57:43.711Z,25.50
2022-12-25T15:58:43.739Z,26.40
2022-12-25T15:59:43.641Z,27.27
2022-12-25T16:00:43.597Z,27.94
2022-12-25T16:01:43.662Z,27.28
2022-12-25T16:02:43.810Z,27.84
2022-12-25T16:03:43.563Z,28.12
2022-12-25T16:04:43.470Z,28.09
2022-12-25T16:05:43.421Z,27.82
2022-12-25T16:06:43.409Z,26.94
2022-12-25T16:07:43.385Z,27.57
2022-12-25T16:08:43.352Z,28.06
2022-12-25T16:09:43.365Z,26.41
2022-12-25T16:10:43.247Z,27.15
2022-12-25T16:11:43.218Z,29.35
2022-12-25T16:12:43.282Z,27.59
2022-12-25T16:13:43.867Z,26.39
2022-12-25T16:14:43.119Z,28.95
2022-12-25T16:15:43.101Z,26.84
2022-12-25T16:16:43.055Z,28.80
2022-12-25T16:17:43.011Z,29.38
2022-12-25T16:18:47.345Z,28.02
2022-12-25T16:19:42.951Z,28.30
2022-12-25T16:20:42.925Z,28.21
2022-12-25T16:21:42.949Z,28.83
2022-12-25T16:22:42.869Z,29.23
2022-12-25T16:23:42.845Z,26.47
2022-12-25T16:24:42.795Z,29.38
2022-12-25T16:25:42.766Z,28.94
2022-12-25T16:26:42.725Z,28.17
2022-12-25T16:27:42.691Z,28.59
2022-12-25T16:28:42.686Z,28.17
2022-12-25T16:29:42.674Z,28.70
2022-12-25T16:30:42.620Z,29.01
2022-12-25T16:31:42.652Z,25.99
2022-12-25T16:32:42.616Z,25.94
2022-12-25T16:33:42.524Z,30.07
2022-12-25T16:34:42.508Z,26.71
2022-12-25T16:35:42.505Z,27.28
2022-12-25T16:36:42.441Z,27.55
2022-12-25T16:37:42.430Z,25.00
2022-12-25T16:38:42.394Z,27.24
2022-12-25T16:39:42.369Z,25.57
2022-12-25T16:40:42.334Z,25.75
2022-12-25T16:41:42.333Z,28.08
2022-12-25T16:42:42.283Z,28.11
2022-12-25T16:43:42.275Z,27.44
2022-12-25T16:44:42.257Z,28.09
2022-12-25T16:45:42.206Z,29.89
2022-12-25T16:46:42.283Z,27.22
2022-12-25T16:47:42.168Z,27.78
2022-12-25T16:48:42.142Z,28.72
2022-12-25T16:49:42.120Z,27.09
2022-12-25T16:50:42.102Z,28.76
2022-12-25T16:51:42.079Z,27.25
2022-12-25T16:52:42.137Z,27.12
2022-12-25T16:53:42.033Z,28.15
2022-12-25T16:54:42.003Z,27.85
2022-12-25T16:55:41.969Z,29.36
2022-12-25T16:56:41.955Z,26.71
2022-12-25T16:57:41.941Z,26.33
2022-12-25T16:58:41.924Z,28.12
2022-12-25T16:59:41.913Z,28.00
2022-12-25T17:00:47.329Z,25.52
2022-12-25T17:01:41.944Z,25.87
2022-12-25T17:02:42.134Z,26.36
2022-12-25T17:03:41.840Z,26.97
2022-12-25T17:04:41.805Z,26.17
2022-12-25T17:05:41.749Z,27.51
2022-12-25T17:06:41.730Z,26.16
2022-12-25T17:07:41.731Z,27.60
2022-12-25T17:08:41.687Z,28.18
2022-12-25T17:09:44.316Z,28.19
2022-12-25T17:10:41.636Z,30.04
2022-12-25T17:11:41.652Z,27.71
2022-12-25T17:12:41.567Z,26.41
2022-12-25T17:13:41.561Z,28.31
2022-12-25T17:14:41.501Z,27.45
2022-12-25T17:15:45.269Z,26.27
2022-12-25T17:16:42.580Z,26.70
2022-12-25T17:17:41.450Z,27.02
2022-12-25T17:18:41.434Z,27.30
2022-12-25T17:19:41.405Z,28.75
2022-12-25T17:20:41.393Z,30.04
2022-12-25T17:21:41.357Z,28.05
2022-12-25T17:22:41.338Z,27.98
2022-12-25T17:23:41.276Z,28.52
2022-12-25T17:24:41.244Z,27.72
2022-12-25T17:25:41.245Z,30.17
2022-12-25T17:26:41.176Z,29.02
2022-12-25T17:27:41.138Z,30.09
2022-12-25T17:28:41.110Z,27.49
2022-12-25T17:29:41.138Z,28.76
2022-12-25T17:30:41.055Z,27.09
2022-12-25T17:31:41.054Z,29.53
2022-12-25T17:32:40.993Z,28.26
2022-12-25T17:33:40.971Z,29.39
2022-12-25T17:34:40.974Z,30.47
2022-12-25T17:35:40.915Z,29.07
2022-12-25T17:36:40.869Z,27.97
2022-12-25T17:37:40.834Z,29.34
2022-12-25T17:38:40.793Z,27.17
2022-12-25T17:39:40.822Z,28.42
2022-12-25T17:40:40.760Z,29.41
2022-12-25T17:41:40.729Z,30.03
2022-12-25T17:42:40.699Z,29.14
2022-12-25T17:43:40.659Z,29.39
2022-12-25T17:44:40.642Z,29.51
2022-12-25T17:45:40.611Z,29.38
2022-12-25T17:46:40.582Z,28.42
2022-12-25T17:47:40.553Z,31.10
2022-12-25T17:48:40.560Z,30.06
2022-12-25T17:49:40.482Z,29.33
2022-12-25T17:50:41.556Z,28.55
2022-12-25T17:51:40.414Z,30.42
2022-12-25T17:52:40.378Z,31.54
2022-12-25T17:53:40.380Z,29.66
2022-12-25T17:54:40.339Z,29.20
2022-12-25T17:55:40.314Z,28.98
2022-12-25T17:56:40.272Z,28.40
2022-12-25T17:57:41.427Z,29.16
2022-12-25T17:58:40.226Z,29.68
2022-12-25T17:59:40.156Z,33.02
2022-12-25T18:00:40.211Z,28.46
2022-12-25T18:01:40.375Z,28.87
2022-12-25T18:09:40.373Z,31.61
2022-12-25T22:44:32.108Z,28.88
2022-12-25T23:16:31.254Z,29.83
2022-12-25T23:21:31.057Z,29.32
2022-12-25T23:22:31.043Z,26.95
2022-12-25T23:23:31.016Z,27.27
2022-12-25T23:24:31.022Z,27.79
2022-12-25T23:25:30.979Z,28.09
2022-12-25T23:26:30.966Z,28.69
2022-12-25T23:27:30.929Z,29.92
2022-12-25T23:28:30.885Z,28.20
2022-12-25T23:29:30.888Z,27.59
2022-12-25T23:30:30.853Z,27.57
2022-12-25T23:31:30.931Z,29.52
2022-12-25T23:32:30.792Z,27.87
2022-12-25T23:33:30.763Z,29.07
2022-12-25T23:34:30.742Z,25.48
2022-12-25T23:35:30.710Z,30.58
2022-12-25T23:36:30.720Z,30.70
2022-12-25T23:37:31.063Z,29.49
2022-12-25T23:38:30.622Z,29.70
2022-12-25T23:39:30.589Z,27.20
2022-12-25T23:40:30.557Z,30.05
2022-12-25T23:41:30.534Z,29.56
2022-12-25T23:42:30.505Z,30.91
2022-12-25T23:43:30.476Z,28.04
2022-12-25T23:44:30.467Z,27.83
2022-12-25T23:45:30.428Z,29.07
2022-12-25T23:46:30.446Z,29.20
2022-12-25T23:47:30.368Z,29.38
2022-12-25T23:48:30.383Z,29.37
2022-12-25T23:49:30.349Z,29.80
2022-12-25T23:50:30.316Z,29.62
2022-12-25T23:51:30.273Z,29.21
2022-12-25T23:52:30.279Z,28.88
2022-12-25T23:53:30.218Z,29.63
2022-12-25T23:54:30.191Z,29.03
2022-12-25T23:55:30.192Z,28.74
2022-12-25T23:56:30.152Z,29.94
2022-12-25T23:57:30.123Z,29.43
2022-12-25T23:58:30.125Z,31.08
